sensor_id;sensor_type;location;lat;lon;timestamp;P1;durP1;ratioP1;P2;durP2;ratioP2
15776;SDS011;7989;51.198;6.676;2024-03-08T00:00:44;16.50;;;14.80;;
15776;SDS011;7989;51.198;6.676;2024-03-08T00:03:11;17.92;;;15.60;;
15776;SDS011;7989;51.198;6.676;2024-03-08T00:05:38;17.17;;;15.57;;
15776;SDS011;7989;51.198;6.676;2024-03-08T00:08:05;15.90;;;14.35;;
15776;SDS011;7989;51.198;6.676;2024-03-08T00:10:36;18.10;;;16.30;;
15776;SDS011;7989;51.198;6.676;2024-03-08T00:13:03;18.45;;;15.88;;
15776;SDS011;7989;51.198;6.676;2024-03-08T00:15:31;17.48;;;15.93;;
15776;SDS011;7989;51.198;6.676;2024-03-08T00:17:58;17.88;;;16.08;;
15776;SDS011;7989;51.198;6.676;2024-03-08T00:20:25;16.98;;;15.35;;
15776;SDS011;7989;51.198;6.676;2024-03-08T00:22:52;17.30;;;15.43;;
15776;SDS011;7989;51.198;6.676;2024-03-08T00:25:19;17.92;;;15.85;;
15776;SDS011;7989;51.198;6.676;2024-03-08T00:27:47;16.80;;;15.07;;
15776;SDS011;7989;51.198;6.676;2024-03-08T00:30:14;18.80;;;16.88;;
15776;SDS011;7989;51.198;6.676;2024-03-08T00:32:41;17.98;;;16.25;;
15776;SDS011;7989;51.198;6.676;2024-03-08T00:35:08;16.23;;;14.73;;
15776;SDS011;7989;51.198;6.676;2024-03-08T00:37:35;18.73;;;16.40;;
15776;SDS011;7989;51.198;6.676;2024-03-08T00:40:03;18.27;;;16.48;;
15776;SDS011;7989;51.198;6.676;2024-03-08T00:42:34;17.55;;;15.85;;
15776;SDS011;7989;51.198;6.676;2024-03-08T00:45:05;18.65;;;16.77;;
15776;SDS011;7989;51.198;6.676;2024-03-08T00:47:32;17.92;;;16.08;;
15776;SDS011;7989;51.198;6.676;2024-03-08T00:49:59;18.75;;;16.90;;
15776;SDS011;7989;51.198;6.676;2024-03-08T00:52:29;19.33;;;17.30;;
15776;SDS011;7989;51.198;6.676;2024-03-08T00:54:55;18.10;;;16.20;;
15776;SDS011;7989;51.198;6.676;2024-03-08T00:57:22;21.20;;;18.10;;
15776;SDS011;7989;51.198;6.676;2024-03-08T00:59:49;18.88;;;17.13;;
15776;SDS011;7989;51.198;6.676;2024-03-08T01:02:17;19.27;;;17.35;;
15776;SDS011;7989;51.198;6.676;2024-03-08T01:04:44;18.42;;;16.50;;
15776;SDS011;7989;51.198;6.676;2024-03-08T01:07:12;17.67;;;15.88;;
15776;SDS011;7989;51.198;6.676;2024-03-08T01:09:39;19.40;;;17.55;;
15776;SDS011;7989;51.198;6.676;2024-03-08T01:12:06;17.85;;;16.08;;
15776;SDS011;7989;51.198;6.676;2024-03-08T01:14:33;18.45;;;16.65;;
15776;SDS011;7989;51.198;6.676;2024-03-08T01:16:59;17.98;;;16.15;;
15776;SDS011;7989;51.198;6.676;2024-03-08T01:19:28;18.23;;;16.35;;
15776;SDS011;7989;51.198;6.676;2024-03-08T01:21:57;19.70;;;17.75;;
15776;SDS011;7989;51.198;6.676;2024-03-08T01:24:24;20.25;;;18.30;;
15776;SDS011;7989;51.198;6.676;2024-03-08T01:26:51;17.77;;;16.08;;
15776;SDS011;7989;51.198;6.676;2024-03-08T01:29:18;18.85;;;17.05;;
15776;SDS011;7989;51.198;6.676;2024-03-08T01:31:44;19.98;;;17.98;;
15776;SDS011;7989;51.198;6.676;2024-03-08T01:34:11;19.65;;;17.58;;
15776;SDS011;7989;51.198;6.676;2024-03-08T01:36:39;20.02;;;18.10;;
15776;SDS011;7989;51.198;6.676;2024-03-08T01:39:06;19.27;;;17.38;;
15776;SDS011;7989;51.198;6.676;2024-03-08T01:41:33;19.73;;;17.70;;
15776;SDS011;7989;51.198;6.676;2024-03-08T01:44:00;20.58;;;18.63;;
15776;SDS011;7989;51.198;6.676;2024-03-08T01:46:27;20.33;;;18.38;;
15776;SDS011;7989;51.198;6.676;2024-03-08T01:48:55;18.73;;;16.95;;
15776;SDS011;7989;51.198;6.676;2024-03-08T01:51:22;21.27;;;18.23;;
15776;SDS011;7989;51.198;6.676;2024-03-08T01:53:54;18.88;;;17.08;;
15776;SDS011;7989;51.198;6.676;2024-03-08T01:56:23;19.38;;;17.52;;
15776;SDS011;7989;51.198;6.676;2024-03-08T01:58:51;20.23;;;18.02;;
15776;SDS011;7989;51.198;6.676;2024-03-08T02:01:21;18.77;;;16.85;;
15776;SDS011;7989;51.198;6.676;2024-03-08T02:03:47;20.48;;;18.38;;
15776;SDS011;7989;51.198;6.676;2024-03-08T02:06:15;20.70;;;18.52;;
15776;SDS011;7989;51.198;6.676;2024-03-08T02:08:42;19.55;;;17.75;;
15776;SDS011;7989;51.198;6.676;2024-03-08T02:11:11;19.75;;;17.70;;
15776;SDS011;7989;51.198;6.676;2024-03-08T02:13:38;21.58;;;19.50;;
15776;SDS011;7989;51.198;6.676;2024-03-08T02:16:05;20.42;;;18.42;;
15776;SDS011;7989;51.198;6.676;2024-03-08T02:18:33;20.27;;;18.23;;
15776;SDS011;7989;51.198;6.676;2024-03-08T02:21:02;20.80;;;18.65;;
15776;SDS011;7989;51.198;6.676;2024-03-08T02:23:30;20.13;;;18.05;;
15776;SDS011;7989;51.198;6.676;2024-03-08T02:25:57;20.70;;;18.60;;
15776;SDS011;7989;51.198;6.676;2024-03-08T02:28:25;19.95;;;17.95;;
15776;SDS011;7989;51.198;6.676;2024-03-08T02:30:52;21.38;;;19.35;;
15776;SDS011;7989;51.198;6.676;2024-03-08T02:33:19;20.75;;;18.63;;
15776;SDS011;7989;51.198;6.676;2024-03-08T02:35:47;20.60;;;18.55;;
15776;SDS011;7989;51.198;6.676;2024-03-08T02:38:16;20.17;;;18.10;;
15776;SDS011;7989;51.198;6.676;2024-03-08T02:40:44;20.88;;;18.80;;
15776;SDS011;7989;51.198;6.676;2024-03-08T02:43:11;20.92;;;18.70;;
15776;SDS011;7989;51.198;6.676;2024-03-08T02:45:39;20.90;;;18.70;;
15776;SDS011;7989;51.198;6.676;2024-03-08T02:48:07;19.35;;;17.45;;
15776;SDS011;7989;51.198;6.676;2024-03-08T02:50:34;21.08;;;18.77;;
15776;SDS011;7989;51.198;6.676;2024-03-08T02:53:01;20.02;;;18.10;;
15776;SDS011;7989;51.198;6.676;2024-03-08T02:55:29;22.33;;;20.00;;
15776;SDS011;7989;51.198;6.676;2024-03-08T02:57:56;19.65;;;17.88;;
15776;SDS011;7989;51.198;6.676;2024-03-08T03:00:24;20.30;;;18.17;;
15776;SDS011;7989;51.198;6.676;2024-03-08T03:02:51;19.88;;;17.90;;
15776;SDS011;7989;51.198;6.676;2024-03-08T03:05:19;19.52;;;17.83;;
15776;SDS011;7989;51.198;6.676;2024-03-08T03:07:46;21.60;;;19.50;;
15776;SDS011;7989;51.198;6.676;2024-03-08T03:10:13;20.33;;;18.33;;
15776;SDS011;7989;51.198;6.676;2024-03-08T03:12:43;20.73;;;18.50;;
15776;SDS011;7989;51.198;6.676;2024-03-08T03:15:10;20.17;;;18.15;;
15776;SDS011;7989;51.198;6.676;2024-03-08T03:17:37;22.20;;;19.92;;
15776;SDS011;7989;51.198;6.676;2024-03-08T03:20:05;23.45;;;21.15;;
15776;SDS011;7989;51.198;6.676;2024-03-08T03:22:37;22.33;;;20.02;;
15776;SDS011;7989;51.198;6.676;2024-03-08T03:25:06;22.23;;;20.02;;
15776;SDS011;7989;51.198;6.676;2024-03-08T03:27:34;21.75;;;19.48;;
15776;SDS011;7989;51.198;6.676;2024-03-08T03:30:03;21.33;;;19.30;;
15776;SDS011;7989;51.198;6.676;2024-03-08T03:32:46;21.02;;;18.92;;
15776;SDS011;7989;51.198;6.676;2024-03-08T03:35:13;23.10;;;19.33;;
15776;SDS011;7989;51.198;6.676;2024-03-08T03:37:40;21.42;;;19.23;;
15776;SDS011;7989;51.198;6.676;2024-03-08T03:40:10;20.63;;;18.65;;
15776;SDS011;7989;51.198;6.676;2024-03-08T03:42:38;21.30;;;19.10;;
15776;SDS011;7989;51.198;6.676;2024-03-08T03:45:06;20.58;;;18.67;;
15776;SDS011;7989;51.198;6.676;2024-03-08T03:47:35;19.92;;;18.05;;
15776;SDS011;7989;51.198;6.676;2024-03-08T03:50:03;20.15;;;18.15;;
15776;SDS011;7989;51.198;6.676;2024-03-08T03:52:31;22.67;;;20.38;;
15776;SDS011;7989;51.198;6.676;2024-03-08T03:54:58;22.52;;;20.17;;
15776;SDS011;7989;51.198;6.676;2024-03-08T03:57:29;22.20;;;20.10;;
15776;SDS011;7989;51.198;6.676;2024-03-08T03:59:56;21.60;;;19.48;;
15776;SDS011;7989;51.198;6.676;2024-03-08T04:02:25;22.50;;;20.27;;
15776;SDS011;7989;51.198;6.676;2024-03-08T04:04:51;19.63;;;17.63;;
15776;SDS011;7989;51.198;6.676;2024-03-08T04:07:19;22.00;;;19.77;;
15776;SDS011;7989;51.198;6.676;2024-03-08T04:09:46;23.48;;;21.00;;
15776;SDS011;7989;51.198;6.676;2024-03-08T04:12:13;22.58;;;20.17;;
15776;SDS011;7989;51.198;6.676;2024-03-08T04:14:42;21.67;;;19.48;;
15776;SDS011;7989;51.198;6.676;2024-03-08T04:17:09;21.73;;;19.65;;
15776;SDS011;7989;51.198;6.676;2024-03-08T04:19:37;21.35;;;19.25;;
15776;SDS011;7989;51.198;6.676;2024-03-08T04:22:05;22.70;;;20.55;;
15776;SDS011;7989;51.198;6.676;2024-03-08T04:24:32;23.00;;;20.60;;
15776;SDS011;7989;51.198;6.676;2024-03-08T04:27:00;23.23;;;20.75;;
15776;SDS011;7989;51.198;6.676;2024-03-08T04:29:27;22.60;;;20.33;;
15776;SDS011;7989;51.198;6.676;2024-03-08T04:31:54;23.00;;;20.63;;
15776;SDS011;7989;51.198;6.676;2024-03-08T04:34:21;21.58;;;19.48;;
15776;SDS011;7989;51.198;6.676;2024-03-08T04:36:49;22.25;;;20.10;;
15776;SDS011;7989;51.198;6.676;2024-03-08T04:39:16;22.95;;;20.48;;
15776;SDS011;7989;51.198;6.676;2024-03-08T04:41:43;22.85;;;20.48;;
15776;SDS011;7989;51.198;6.676;2024-03-08T04:44:11;19.92;;;18.02;;
15776;SDS011;7989;51.198;6.676;2024-03-08T04:46:38;21.60;;;19.52;;
15776;SDS011;7989;51.198;6.676;2024-03-08T04:49:06;21.98;;;19.70;;
15776;SDS011;7989;51.198;6.676;2024-03-08T04:51:32;21.23;;;19.02;;
15776;SDS011;7989;51.198;6.676;2024-03-08T04:54:01;21.77;;;19.58;;
15776;SDS011;7989;51.198;6.676;2024-03-08T04:56:29;22.92;;;20.73;;
15776;SDS011;7989;51.198;6.676;2024-03-08T04:58:56;25.70;;;20.75;;
15776;SDS011;7989;51.198;6.676;2024-03-08T05:01:23;22.17;;;19.98;;
15776;SDS011;7989;51.198;6.676;2024-03-08T05:03:50;22.77;;;20.17;;
15776;SDS011;7989;51.198;6.676;2024-03-08T05:06:20;23.70;;;21.25;;
15776;SDS011;7989;51.198;6.676;2024-03-08T05:08:48;20.70;;;18.77;;
15776;SDS011;7989;51.198;6.676;2024-03-08T05:11:17;23.38;;;21.15;;
15776;SDS011;7989;51.198;6.676;2024-03-08T05:13:43;21.92;;;19.73;;
15776;SDS011;7989;51.198;6.676;2024-03-08T05:16:10;22.17;;;19.98;;
15776;SDS011;7989;51.198;6.676;2024-03-08T05:18:40;22.75;;;20.45;;
15776;SDS011;7989;51.198;6.676;2024-03-08T05:21:07;22.35;;;20.17;;
15776;SDS011;7989;51.198;6.676;2024-03-08T05:23:34;24.63;;;19.92;;
15776;SDS011;7989;51.198;6.676;2024-03-08T05:26:01;22.48;;;20.05;;
15776;SDS011;7989;51.198;6.676;2024-03-08T05:28:29;22.17;;;20.08;;
15776;SDS011;7989;51.198;6.676;2024-03-08T05:30:56;23.08;;;20.75;;
15776;SDS011;7989;51.198;6.676;2024-03-08T05:33:22;24.10;;;21.77;;
15776;SDS011;7989;51.198;6.676;2024-03-08T05:35:49;22.25;;;19.95;;
15776;SDS011;7989;51.198;6.676;2024-03-08T05:38:17;23.55;;;21.15;;
15776;SDS011;7989;51.198;6.676;2024-03-08T05:40:45;22.70;;;20.17;;
15776;SDS011;7989;51.198;6.676;2024-03-08T05:43:12;22.80;;;20.30;;
15776;SDS011;7989;51.198;6.676;2024-03-08T05:45:40;21.92;;;19.83;;
15776;SDS011;7989;51.198;6.676;2024-03-08T05:48:07;23.38;;;20.98;;
15776;SDS011;7989;51.198;6.676;2024-03-08T05:50:34;21.92;;;19.83;;
15776;SDS011;7989;51.198;6.676;2024-03-08T05:53:00;24.77;;;22.27;;
15776;SDS011;7989;51.198;6.676;2024-03-08T05:55:27;23.80;;;21.17;;
15776;SDS011;7989;51.198;6.676;2024-03-08T05:57:54;23.08;;;20.80;;
15776;SDS011;7989;51.198;6.676;2024-03-08T06:00:21;21.52;;;19.23;;
15776;SDS011;7989;51.198;6.676;2024-03-08T06:02:50;23.88;;;21.33;;
15776;SDS011;7989;51.198;6.676;2024-03-08T06:05:17;23.33;;;21.00;;
15776;SDS011;7989;51.198;6.676;2024-03-08T06:07:44;21.08;;;18.85;;
15776;SDS011;7989;51.198;6.676;2024-03-08T06:10:11;24.73;;;21.42;;
15776;SDS011;7989;51.198;6.676;2024-03-08T06:12:38;21.75;;;19.45;;
15776;SDS011;7989;51.198;6.676;2024-03-08T06:15:06;22.65;;;20.23;;
15776;SDS011;7989;51.198;6.676;2024-03-08T06:17:34;23.38;;;21.05;;
15776;SDS011;7989;51.198;6.676;2024-03-08T06:20:03;25.75;;;22.40;;
15776;SDS011;7989;51.198;6.676;2024-03-08T06:22:35;22.50;;;20.10;;
15776;SDS011;7989;51.198;6.676;2024-03-08T06:25:02;21.75;;;19.55;;
15776;SDS011;7989;51.198;6.676;2024-03-08T06:27:30;24.63;;;22.10;;
15776;SDS011;7989;51.198;6.676;2024-03-08T06:29:59;23.38;;;21.05;;
15776;SDS011;7989;51.198;6.676;2024-03-08T06:32:25;23.35;;;21.05;;
15776;SDS011;7989;51.198;6.676;2024-03-08T06:34:52;24.67;;;22.20;;
15776;SDS011;7989;51.198;6.676;2024-03-08T06:37:20;23.52;;;21.10;;
15776;SDS011;7989;51.198;6.676;2024-03-08T06:39:48;26.83;;;21.13;;
15776;SDS011;7989;51.198;6.676;2024-03-08T06:42:16;24.30;;;21.77;;
15776;SDS011;7989;51.198;6.676;2024-03-08T06:44:43;24.08;;;21.45;;
15776;SDS011;7989;51.198;6.676;2024-03-08T06:47:14;23.40;;;21.00;;
15776;SDS011;7989;51.198;6.676;2024-03-08T06:49:41;22.50;;;20.20;;
15776;SDS011;7989;51.198;6.676;2024-03-08T06:52:08;24.40;;;21.85;;
15776;SDS011;7989;51.198;6.676;2024-03-08T06:54:36;25.15;;;21.70;;
15776;SDS011;7989;51.198;6.676;2024-03-08T06:57:03;22.55;;;20.25;;
15776;SDS011;7989;51.198;6.676;2024-03-08T06:59:31;23.90;;;21.35;;
15776;SDS011;7989;51.198;6.676;2024-03-08T07:01:58;24.42;;;21.83;;
15776;SDS011;7989;51.198;6.676;2024-03-08T07:04:25;21.88;;;19.65;;
15776;SDS011;7989;51.198;6.676;2024-03-08T07:06:54;23.65;;;21.25;;
15776;SDS011;7989;51.198;6.676;2024-03-08T07:09:22;24.33;;;21.73;;
15776;SDS011;7989;51.198;6.676;2024-03-08T07:11:51;23.05;;;20.65;;
15776;SDS011;7989;51.198;6.676;2024-03-08T07:14:20;21.13;;;19.05;;
15776;SDS011;7989;51.198;6.676;2024-03-08T07:16:47;21.65;;;19.55;;
15776;SDS011;7989;51.198;6.676;2024-03-08T07:19:14;22.50;;;20.20;;
15776;SDS011;7989;51.198;6.676;2024-03-08T07:21:42;22.30;;;19.77;;
15776;SDS011;7989;51.198;6.676;2024-03-08T07:24:09;23.13;;;20.63;;
15776;SDS011;7989;51.198;6.676;2024-03-08T07:26:59;21.63;;;19.15;;
15776;SDS011;7989;51.198;6.676;2024-03-08T07:29:27;22.42;;;19.73;;
15776;SDS011;7989;51.198;6.676;2024-03-08T07:31:54;24.77;;;21.40;;
15776;SDS011;7989;51.198;6.676;2024-03-08T07:34:32;23.00;;;20.70;;
15776;SDS011;7989;51.198;6.676;2024-03-08T07:36:59;21.05;;;18.95;;
15776;SDS011;7989;51.198;6.676;2024-03-08T07:39:26;23.65;;;20.70;;
15776;SDS011;7989;51.198;6.676;2024-03-08T07:41:53;21.75;;;19.55;;
15776;SDS011;7989;51.198;6.676;2024-03-08T07:44:21;22.92;;;20.65;;
15776;SDS011;7989;51.198;6.676;2024-03-08T07:46:49;21.25;;;19.15;;
15776;SDS011;7989;51.198;6.676;2024-03-08T07:49:16;21.63;;;19.50;;
15776;SDS011;7989;51.198;6.676;2024-03-08T07:51:43;20.98;;;18.80;;
15776;SDS011;7989;51.198;6.676;2024-03-08T07:54:10;21.90;;;19.70;;
15776;SDS011;7989;51.198;6.676;2024-03-08T07:56:36;22.65;;;20.45;;
15776;SDS011;7989;51.198;6.676;2024-03-08T07:59:03;21.40;;;19.13;;
15776;SDS011;7989;51.198;6.676;2024-03-08T08:01:31;21.67;;;19.55;;
15776;SDS011;7989;51.198;6.676;2024-03-08T08:03:58;21.60;;;19.48;;
15776;SDS011;7989;51.198;6.676;2024-03-08T08:06:26;20.05;;;18.15;;
15776;SDS011;7989;51.198;6.676;2024-03-08T08:08:53;20.98;;;18.80;;
15776;SDS011;7989;51.198;6.676;2024-03-08T08:11:20;21.35;;;19.15;;
15776;SDS011;7989;51.198;6.676;2024-03-08T08:13:47;19.65;;;17.85;;
15776;SDS011;7989;51.198;6.676;2024-03-08T08:16:14;19.45;;;17.55;;
15776;SDS011;7989;51.198;6.676;2024-03-08T08:18:42;19.48;;;17.58;;
15776;SDS011;7989;51.198;6.676;2024-03-08T08:21:11;18.52;;;16.92;;
15776;SDS011;7989;51.198;6.676;2024-03-08T08:23:38;18.83;;;17.15;;
15776;SDS011;7989;51.198;6.676;2024-03-08T08:26:05;18.65;;;16.92;;
15776;SDS011;7989;51.198;6.676;2024-03-08T08:28:32;19.02;;;17.30;;
15776;SDS011;7989;51.198;6.676;2024-03-08T08:30:59;19.08;;;17.13;;
15776;SDS011;7989;51.198;6.676;2024-03-08T08:33:26;18.75;;;16.95;;
15776;SDS011;7989;51.198;6.676;2024-03-08T08:35:54;18.00;;;16.10;;
15776;SDS011;7989;51.198;6.676;2024-03-08T08:38:21;18.58;;;16.40;;
15776;SDS011;7989;51.198;6.676;2024-03-08T08:40:49;17.15;;;15.65;;
15776;SDS011;7989;51.198;6.676;2024-03-08T08:43:17;16.67;;;15.27;;
15776;SDS011;7989;51.198;6.676;2024-03-08T08:45:46;17.00;;;15.50;;
15776;SDS011;7989;51.198;6.676;2024-03-08T08:48:15;16.20;;;14.68;;
15776;SDS011;7989;51.198;6.676;2024-03-08T08:50:42;15.70;;;14.20;;
15776;SDS011;7989;51.198;6.676;2024-03-08T08:53:11;14.93;;;13.52;;
15776;SDS011;7989;51.198;6.676;2024-03-08T08:55:39;15.05;;;13.57;;
15776;SDS011;7989;51.198;6.676;2024-03-08T08:58:06;14.75;;;13.45;;
15776;SDS011;7989;51.198;6.676;2024-03-08T09:00:33;15.57;;;14.10;;
15776;SDS011;7989;51.198;6.676;2024-03-08T09:03:00;14.30;;;12.90;;
15776;SDS011;7989;51.198;6.676;2024-03-08T09:05:27;15.80;;;14.32;;
15776;SDS011;7989;51.198;6.676;2024-03-08T09:07:54;14.75;;;13.35;;
15776;SDS011;7989;51.198;6.676;2024-03-08T09:10:22;15.13;;;13.82;;
15776;SDS011;7989;51.198;6.676;2024-03-08T09:12:49;15.18;;;13.73;;
15776;SDS011;7989;51.198;6.676;2024-03-08T09:15:16;14.52;;;13.32;;
15776;SDS011;7989;51.198;6.676;2024-03-08T09:17:45;17.38;;;15.88;;
15776;SDS011;7989;51.198;6.676;2024-03-08T09:20:13;16.45;;;14.98;;
15776;SDS011;7989;51.198;6.676;2024-03-08T09:22:40;13.80;;;12.68;;
15776;SDS011;7989;51.198;6.676;2024-03-08T09:25:10;14.38;;;13.18;;
15776;SDS011;7989;51.198;6.676;2024-03-08T09:27:38;14.90;;;13.50;;
15776;SDS011;7989;51.198;6.676;2024-03-08T09:30:06;14.82;;;13.32;;
15776;SDS011;7989;51.198;6.676;2024-03-08T09:32:33;13.02;;;11.93;;
15776;SDS011;7989;51.198;6.676;2024-03-08T09:35:01;14.15;;;12.77;;
15776;SDS011;7989;51.198;6.676;2024-03-08T09:37:28;15.48;;;14.18;;
15776;SDS011;7989;51.198;6.676;2024-03-08T09:39:55;13.40;;;12.27;;
15776;SDS011;7989;51.198;6.676;2024-03-08T09:42:24;14.85;;;13.43;;
15776;SDS011;7989;51.198;6.676;2024-03-08T09:44:52;15.45;;;14.00;;
15776;SDS011;7989;51.198;6.676;2024-03-08T09:47:19;13.32;;;12.20;;
15776;SDS011;7989;51.198;6.676;2024-03-08T09:49:52;14.45;;;13.15;;
15776;SDS011;7989;51.198;6.676;2024-03-08T09:52:19;14.73;;;13.52;;
15776;SDS011;7989;51.198;6.676;2024-03-08T09:54:45;13.82;;;12.63;;
15776;SDS011;7989;51.198;6.676;2024-03-08T09:57:12;13.07;;;11.98;;
15776;SDS011;7989;51.198;6.676;2024-03-08T09:59:40;14.38;;;13.18;;
15776;SDS011;7989;51.198;6.676;2024-03-08T10:02:14;13.88;;;12.68;;
15776;SDS011;7989;51.198;6.676;2024-03-08T10:04:42;15.77;;;14.55;;
15776;SDS011;7989;51.198;6.676;2024-03-08T10:07:11;14.93;;;13.43;;
15776;SDS011;7989;51.198;6.676;2024-03-08T10:09:38;14.88;;;13.68;;
15776;SDS011;7989;51.198;6.676;2024-03-08T10:12:06;15.07;;;13.63;;
15776;SDS011;7989;51.198;6.676;2024-03-08T10:14:38;15.20;;;13.85;;
15776;SDS011;7989;51.198;6.676;2024-03-08T10:17:06;13.27;;;12.18;;
15776;SDS011;7989;51.198;6.676;2024-03-08T10:19:35;14.32;;;13.13;;
15776;SDS011;7989;51.198;6.676;2024-03-08T10:22:02;13.93;;;12.73;;
15776;SDS011;7989;51.198;6.676;2024-03-08T10:24:29;14.35;;;13.07;;
15776;SDS011;7989;51.198;6.676;2024-03-08T10:26:58;13.65;;;12.35;;
15776;SDS011;7989;51.198;6.676;2024-03-08T10:29:26;13.95;;;12.68;;
15776;SDS011;7989;51.198;6.676;2024-03-08T10:31:54;12.45;;;11.35;;
15776;SDS011;7989;51.198;6.676;2024-03-08T10:34:23;12.82;;;11.68;;
15776;SDS011;7989;51.198;6.676;2024-03-08T10:36:52;12.57;;;11.48;;
15776;SDS011;7989;51.198;6.676;2024-03-08T10:39:23;11.65;;;10.65;;
15776;SDS011;7989;51.198;6.676;2024-03-08T10:41:52;11.82;;;10.82;;
15776;SDS011;7989;51.198;6.676;2024-03-08T10:44:29;10.95;;;9.98;;
15776;SDS011;7989;51.198;6.676;2024-03-08T10:47:08;14.77;;;11.60;;
15776;SDS011;7989;51.198;6.676;2024-03-08T10:49:45;12.10;;;10.90;;
15776;SDS011;7989;51.198;6.676;2024-03-08T10:52:20;13.00;;;11.80;;
15776;SDS011;7989;51.198;6.676;2024-03-08T10:54:47;12.35;;;11.27;;
15776;SDS011;7989;51.198;6.676;2024-03-08T10:57:16;13.05;;;11.75;;
15776;SDS011;7989;51.198;6.676;2024-03-08T10:59:45;11.68;;;10.68;;
15776;SDS011;7989;51.198;6.676;2024-03-08T11:02:14;12.15;;;11.02;;
15776;SDS011;7989;51.198;6.676;2024-03-08T11:04:45;12.27;;;11.07;;
15776;SDS011;7989;51.198;6.676;2024-03-08T11:07:14;10.93;;;9.77;;
15776;SDS011;7989;51.198;6.676;2024-03-08T11:09:45;10.93;;;10.00;;
15776;SDS011;7989;51.198;6.676;2024-03-08T11:12:24;11.90;;;10.90;;
15776;SDS011;7989;51.198;6.676;2024-03-08T11:14:54;11.32;;;10.32;;
15776;SDS011;7989;51.198;6.676;2024-03-08T11:17:25;11.23;;;10.23;;
15776;SDS011;7989;51.198;6.676;2024-03-08T11:20:12;11.00;;;9.48;;
15776;SDS011;7989;51.198;6.676;2024-03-08T11:22:41;10.20;;;9.30;;
15776;SDS011;7989;51.198;6.676;2024-03-08T11:28:09;10.25;;;9.40;;
15776;SDS011;7989;51.198;6.676;2024-03-08T11:30:41;11.25;;;10.15;;
15776;SDS011;7989;51.198;6.676;2024-03-08T11:33:11;15.43;;;9.32;;
15776;SDS011;7989;51.198;6.676;2024-03-08T11:35:38;10.88;;;9.95;;
15776;SDS011;7989;51.198;6.676;2024-03-08T11:38:07;10.15;;;9.25;;
15776;SDS011;7989;51.198;6.676;2024-03-08T11:40:35;11.55;;;10.27;;
15776;SDS011;7989;51.198;6.676;2024-03-08T11:43:03;11.15;;;10.13;;
15776;SDS011;7989;51.198;6.676;2024-03-08T11:45:32;10.35;;;9.35;;
15776;SDS011;7989;51.198;6.676;2024-03-08T11:48:01;10.80;;;9.80;;
15776;SDS011;7989;51.198;6.676;2024-03-08T11:50:29;9.85;;;8.93;;
15776;SDS011;7989;51.198;6.676;2024-03-08T11:53:00;10.23;;;9.43;;
15776;SDS011;7989;51.198;6.676;2024-03-08T11:55:27;10.07;;;9.27;;
15776;SDS011;7989;51.198;6.676;2024-03-08T11:58:00;10.98;;;9.98;;
15776;SDS011;7989;51.198;6.676;2024-03-08T12:00:28;10.52;;;9.70;;
15776;SDS011;7989;51.198;6.676;2024-03-08T12:03:06;12.63;;;11.45;;
15776;SDS011;7989;51.198;6.676;2024-03-08T12:05:35;11.73;;;10.63;;
15776;SDS011;7989;51.198;6.676;2024-03-08T12:08:03;10.63;;;9.60;;
15776;SDS011;7989;51.198;6.676;2024-03-08T12:10:31;9.95;;;9.05;;
15776;SDS011;7989;51.198;6.676;2024-03-08T12:13:01;10.10;;;9.18;;
15776;SDS011;7989;51.198;6.676;2024-03-08T12:15:29;10.10;;;9.20;;
15776;SDS011;7989;51.198;6.676;2024-03-08T12:17:58;10.90;;;10.00;;
15776;SDS011;7989;51.198;6.676;2024-03-08T12:20:26;12.35;;;11.25;;
15776;SDS011;7989;51.198;6.676;2024-03-08T12:22:55;10.98;;;9.90;;
15776;SDS011;7989;51.198;6.676;2024-03-08T12:25:26;11.27;;;10.02;;
15776;SDS011;7989;51.198;6.676;2024-03-08T12:27:56;14.60;;;13.20;;
15776;SDS011;7989;51.198;6.676;2024-03-08T12:30:25;11.10;;;8.70;;
15776;SDS011;7989;51.198;6.676;2024-03-08T12:32:54;9.57;;;8.77;;
15776;SDS011;7989;51.198;6.676;2024-03-08T12:35:23;10.13;;;9.32;;
15776;SDS011;7989;51.198;6.676;2024-03-08T12:37:51;10.32;;;9.52;;
15776;SDS011;7989;51.198;6.676;2024-03-08T12:40:19;9.43;;;8.63;;
15776;SDS011;7989;51.198;6.676;2024-03-08T12:42:53;10.85;;;9.95;;
15776;SDS011;7989;51.198;6.676;2024-03-08T12:45:20;10.05;;;9.25;;
15776;SDS011;7989;51.198;6.676;2024-03-08T12:47:50;12.20;;;9.20;;
15776;SDS011;7989;51.198;6.676;2024-03-08T12:50:18;10.32;;;9.52;;
15776;SDS011;7989;51.198;6.676;2024-03-08T12:52:45;9.52;;;8.52;;
15776;SDS011;7989;51.198;6.676;2024-03-08T12:55:13;10.18;;;9.38;;
15776;SDS011;7989;51.198;6.676;2024-03-08T12:57:41;9.77;;;9.05;;
15776;SDS011;7989;51.198;6.676;2024-03-08T13:00:09;9.13;;;8.43;;
15776;SDS011;7989;51.198;6.676;2024-03-08T13:02:38;10.48;;;9.68;;
15776;SDS011;7989;51.198;6.676;2024-03-08T13:05:07;10.13;;;9.23;;
15776;SDS011;7989;51.198;6.676;2024-03-08T13:07:35;9.88;;;9.18;;
15776;SDS011;7989;51.198;6.676;2024-03-08T13:10:03;9.85;;;8.90;;
15776;SDS011;7989;51.198;6.676;2024-03-08T13:12:32;9.32;;;8.52;;
15776;SDS011;7989;51.198;6.676;2024-03-08T13:15:00;11.57;;;10.55;;
15776;SDS011;7989;51.198;6.676;2024-03-08T13:17:26;9.88;;;9.10;;
15776;SDS011;7989;51.198;6.676;2024-03-08T13:19:54;10.40;;;9.50;;
15776;SDS011;7989;51.198;6.676;2024-03-08T13:22:24;10.30;;;9.30;;
15776;SDS011;7989;51.198;6.676;2024-03-08T13:24:50;9.75;;;8.95;;
15776;SDS011;7989;51.198;6.676;2024-03-08T13:27:18;10.85;;;10.02;;
15776;SDS011;7989;51.198;6.676;2024-03-08T13:29:46;9.85;;;9.02;;
15776;SDS011;7989;51.198;6.676;2024-03-08T13:32:14;10.00;;;9.10;;
15776;SDS011;7989;51.198;6.676;2024-03-08T13:34:41;9.80;;;8.98;;
15776;SDS011;7989;51.198;6.676;2024-03-08T13:37:10;11.70;;;8.82;;
15776;SDS011;7989;51.198;6.676;2024-03-08T13:39:38;9.02;;;8.32;;
15776;SDS011;7989;51.198;6.676;2024-03-08T13:42:09;9.93;;;9.10;;
15776;SDS011;7989;51.198;6.676;2024-03-08T13:44:38;9.68;;;8.77;;
15776;SDS011;7989;51.198;6.676;2024-03-08T13:47:06;10.13;;;9.23;;
15776;SDS011;7989;51.198;6.676;2024-03-08T13:49:33;10.18;;;9.20;;
15776;SDS011;7989;51.198;6.676;2024-03-08T13:52:01;9.30;;;8.57;;
15776;SDS011;7989;51.198;6.676;2024-03-08T13:54:29;9.95;;;9.15;;
15776;SDS011;7989;51.198;6.676;2024-03-08T13:56:58;9.05;;;8.35;;
15776;SDS011;7989;51.198;6.676;2024-03-08T13:59:25;10.13;;;9.32;;
15776;SDS011;7989;51.198;6.676;2024-03-08T14:01:54;10.55;;;9.57;;
15776;SDS011;7989;51.198;6.676;2024-03-08T14:04:23;11.18;;;10.18;;
15776;SDS011;7989;51.198;6.676;2024-03-08T14:06:51;9.68;;;8.98;;
15776;SDS011;7989;51.198;6.676;2024-03-08T14:09:21;9.70;;;8.88;;
15776;SDS011;7989;51.198;6.676;2024-03-08T14:11:49;8.52;;;7.72;;
15776;SDS011;7989;51.198;6.676;2024-03-08T14:14:20;10.02;;;9.13;;
15776;SDS011;7989;51.198;6.676;2024-03-08T14:16:48;9.93;;;9.07;;
15776;SDS011;7989;51.198;6.676;2024-03-08T14:19:18;9.48;;;8.70;;
15776;SDS011;7989;51.198;6.676;2024-03-08T14:21:45;10.00;;;9.00;;
15776;SDS011;7989;51.198;6.676;2024-03-08T14:24:13;9.40;;;8.60;;
15776;SDS011;7989;51.198;6.676;2024-03-08T14:26:40;10.05;;;9.25;;
15776;SDS011;7989;51.198;6.676;2024-03-08T14:29:07;9.43;;;8.73;;
15776;SDS011;7989;51.198;6.676;2024-03-08T14:31:36;9.63;;;8.82;;
15776;SDS011;7989;51.198;6.676;2024-03-08T14:34:03;10.10;;;9.23;;
15776;SDS011;7989;51.198;6.676;2024-03-08T14:36:30;9.73;;;9.02;;
15776;SDS011;7989;51.198;6.676;2024-03-08T14:38:57;10.93;;;10.13;;
15776;SDS011;7989;51.198;6.676;2024-03-08T14:41:23;11.45;;;10.45;;
15776;SDS011;7989;51.198;6.676;2024-03-08T14:43:51;11.52;;;9.10;;
15776;SDS011;7989;51.198;6.676;2024-03-08T14:46:18;9.65;;;8.65;;